< < Back
Terminal Aerodrome Forecast


Current Version              Previous Versions:   1  2  3  4  5  6  7  8  9  

Terminal Aerodrome Forecast

679
FTUS44 KMOB 011722
TAFPNS
TAF
KPNS 011722Z 0118/0218 35008KT P6SM VCTS SCT040CB
     FM012200 20008KT P6SM VCTS SCT040CB SCT250
     FM020300 VRB04KT P6SM SKC=



Latest METAR

676
SAUS70 KWBC 020400 RRF
MTRPNS
METAR KPNS 020353Z 23005KT 10SM CLR 28/24 A3002 RMK AO2 SLP167
T02830239


USA.gov is the U.S. government's official web portal to all federal, state and local government web resources and services.